sensor_id;sensor_type;location;lat;lon;timestamp;pressure;altitude;pressure_sealevel;temperature;humidity
10852;BME280;5479;52.046;6.314;2023-05-10T00:00:17;100721.31;;;13.04;100.00
10852;BME280;5479;52.046;6.314;2023-05-10T00:02:45;100718.84;;;13.01;100.00
10852;BME280;5479;52.046;6.314;2023-05-10T00:05:19;100718.97;;;12.99;100.00
10852;BME280;5479;52.046;6.314;2023-05-10T00:07:48;100718.56;;;13.05;100.00
10852;BME280;5479;52.046;6.314;2023-05-10T00:10:16;100718.56;;;13.05;100.00
10852;BME280;5479;52.046;6.314;2023-05-10T00:12:44;100715.69;;;13.08;100.00
10852;BME280;5479;52.046;6.314;2023-05-10T00:15:12;100715.69;;;13.08;100.00
10852;BME280;5479;52.046;6.314;2023-05-10T00:17:40;100714.19;;;13.04;100.00
10852;BME280;5479;52.046;6.314;2023-05-10T00:20:11;100711.84;;;13.00;100.00
10852;BME280;5479;52.046;6.314;2023-05-10T00:22:41;100711.00;;;12.99;100.00
10852;BME280;5479;52.046;6.314;2023-05-10T00:25:09;100714.41;;;13.01;100.00
10852;BME280;5479;52.046;6.314;2023-05-10T00:27:39;100707.38;;;13.00;100.00
10852;BME280;5479;52.046;6.314;2023-05-10T00:30:08;100715.03;;;13.05;100.00
10852;BME280;5479;52.046;6.314;2023-05-10T00:32:45;100702.28;;;12.97;100.00
10852;BME280;5479;52.046;6.314;2023-05-10T00:35:27;100706.31;;;12.90;100.00
10852;BME280;5479;52.046;6.314;2023-05-10T00:38:00;100702.28;;;12.85;100.00
10852;BME280;5479;52.046;6.314;2023-05-10T00:40:33;100707.06;;;12.92;100.00
10852;BME280;5479;52.046;6.314;2023-05-10T00:43:06;100708.03;;;12.91;100.00
10852;BME280;5479;52.046;6.314;2023-05-10T00:45:43;100707.06;;;12.92;100.00
10852;BME280;5479;52.046;6.314;2023-05-10T00:48:12;100704.53;;;12.91;100.00
10852;BME280;5479;52.046;6.314;2023-05-10T00:50:41;100707.38;;;12.88;100.00
10852;BME280;5479;52.046;6.314;2023-05-10T00:53:16;100707.38;;;12.88;100.00
10852;BME280;5479;52.046;6.314;2023-05-10T00:55:48;100705.38;;;12.91;100.00
10852;BME280;5479;52.046;6.314;2023-05-10T00:58:21;100707.63;;;12.97;100.00
10852;BME280;5479;52.046;6.314;2023-05-10T01:00:58;100711.22;;;12.96;100.00
10852;BME280;5479;52.046;6.314;2023-05-10T01:03:29;100716.41;;;12.98;100.00
10852;BME280;5479;52.046;6.314;2023-05-10T01:05:58;100704.84;;;12.99;100.00
10852;BME280;5479;52.046;6.314;2023-05-10T01:08:30;100707.63;;;12.97;100.00
10852;BME280;5479;52.046;6.314;2023-05-10T01:11:03;100711.00;;;12.99;100.00
10852;BME280;5479;52.046;6.314;2023-05-10T01:13:33;100698.44;;;13.01;100.00
10852;BME280;5479;52.046;6.314;2023-05-10T01:16:06;100705.47;;;13.02;100.00
10852;BME280;5479;52.046;6.314;2023-05-10T01:18:36;100698.66;;;12.98;100.00
10852;BME280;5479;52.046;6.314;2023-05-10T01:21:15;100707.38;;;13.00;100.00
10852;BME280;5479;52.046;6.314;2023-05-10T01:24:35;100708.69;;;13.07;100.00
10852;BME280;5479;52.046;6.314;2023-05-10T01:27:41;100713.88;;;13.09;100.00
10852;BME280;5479;52.046;6.314;2023-05-10T01:33:15;100699.72;;;13.08;100.00
10852;BME280;5479;52.046;6.314;2023-05-10T01:36:04;100709.53;;;13.08;100.00
10852;BME280;5479;52.046;6.314;2023-05-10T01:38:42;100706.63;;;13.11;100.00
10852;BME280;5479;52.046;6.314;2023-05-10T01:41:42;100702.81;;;13.15;100.00
10852;BME280;5479;52.046;6.314;2023-05-10T01:44:18;100699.31;;;13.14;100.00
10852;BME280;5479;52.046;6.314;2023-05-10T01:46:53;100705.69;;;13.12;100.00
10852;BME280;5479;52.046;6.314;2023-05-10T01:49:31;100707.41;;;13.13;100.00
10852;BME280;5479;52.046;6.314;2023-05-10T01:52:16;100703.56;;;13.17;100.00
10852;BME280;5479;52.046;6.314;2023-05-10T01:54:58;100708.00;;;13.16;100.00
10852;BME280;5479;52.046;6.314;2023-05-10T01:57:33;100711.66;;;13.15;100.00
10852;BME280;5479;52.046;6.314;2023-05-10T02:00:07;100710.59;;;13.18;100.00
10852;BME280;5479;52.046;6.314;2023-05-10T02:02:39;100708.56;;;13.21;100.00
10852;BME280;5479;52.046;6.314;2023-05-10T02:05:12;100711.31;;;13.20;100.00
10852;BME280;5479;52.046;6.314;2023-05-10T02:07:40;100713.13;;;13.19;100.00
10852;BME280;5479;52.046;6.314;2023-05-10T02:10:10;100709.72;;;13.17;100.00
10852;BME280;5479;52.046;6.314;2023-05-10T02:12:43;100714.91;;;13.19;100.00
10852;BME280;5479;52.046;6.314;2023-05-10T02:15:18;100714.72;;;13.22;100.00
10852;BME280;5479;52.046;6.314;2023-05-10T02:17:47;100723.31;;;13.25;100.00
10852;BME280;5479;52.046;6.314;2023-05-10T02:20:24;100721.63;;;13.24;100.00
10852;BME280;5479;52.046;6.314;2023-05-10T02:22:57;100720.66;;;13.25;100.00
10852;BME280;5479;52.046;6.314;2023-05-10T02:25:27;100723.84;;;13.30;100.00
10852;BME280;5479;52.046;6.314;2023-05-10T02:27:57;100717.78;;;13.28;100.00
10852;BME280;5479;52.046;6.314;2023-05-10T02:30:53;100720.13;;;13.33;100.00
10852;BME280;5479;52.046;6.314;2023-05-10T02:33:41;100727.03;;;13.36;100.00
10852;BME280;5479;52.046;6.314;2023-05-10T02:36:15;100722.56;;;13.36;100.00
10852;BME280;5479;52.046;6.314;2023-05-10T02:38:51;100719.69;;;13.39;100.00
10852;BME280;5479;52.046;6.314;2023-05-10T02:41:22;100720.75;;;13.37;100.00
10852;BME280;5479;52.046;6.314;2023-05-10T02:44:01;100719.03;;;13.36;100.00
10852;BME280;5479;52.046;6.314;2023-05-10T02:46:32;100720.03;;;13.35;100.00
10852;BME280;5479;52.046;6.314;2023-05-10T02:49:00;100720.75;;;13.37;100.00
10852;BME280;5479;52.046;6.314;2023-05-10T02:51:38;100720.53;;;13.40;100.00
10852;BME280;5479;52.046;6.314;2023-05-10T02:54:13;100723.19;;;13.40;100.00
10852;BME280;5479;52.046;6.314;2023-05-10T02:56:58;100723.81;;;13.43;100.00
10852;BME280;5479;52.046;6.314;2023-05-10T02:59:29;100719.25;;;13.45;100.00
10852;BME280;5479;52.046;6.314;2023-05-10T03:01:59;100724.78;;;13.42;100.00
10852;BME280;5479;52.046;6.314;2023-05-10T03:04:28;100716.59;;;13.45;100.00
10852;BME280;5479;52.046;6.314;2023-05-10T03:07:00;100723.50;;;13.48;100.00
10852;BME280;5479;52.046;6.314;2023-05-10T03:09:28;100721.94;;;13.56;100.00
10852;BME280;5479;52.046;6.314;2023-05-10T03:12:06;100710.69;;;13.53;100.00
10852;BME280;5479;52.046;6.314;2023-05-10T03:14:47;100717.47;;;13.57;100.00
10852;BME280;5479;52.046;6.314;2023-05-10T03:17:27;100729.84;;;13.58;100.00
10852;BME280;5479;52.046;6.314;2023-05-10T03:20:04;100728.88;;;13.59;100.00
10852;BME280;5479;52.046;6.314;2023-05-10T03:22:47;100732.59;;;13.56;100.00
10852;BME280;5479;52.046;6.314;2023-05-10T03:25:24;100732.59;;;13.56;100.00
10852;BME280;5479;52.046;6.314;2023-05-10T03:27:53;100735.66;;;13.63;100.00
10852;BME280;5479;52.046;6.314;2023-05-10T03:30:24;100734.09;;;13.60;100.00
10852;BME280;5479;52.046;6.314;2023-05-10T03:33:13;100742.91;;;13.61;100.00
10852;BME280;5479;52.046;6.314;2023-05-10T03:35:44;100728.75;;;13.60;100.00
10852;BME280;5479;52.046;6.314;2023-05-10T03:38:16;100743.66;;;13.63;100.00
10852;BME280;5479;52.046;6.314;2023-05-10T03:40:44;100741.34;;;13.58;100.00
10852;BME280;5479;52.046;6.314;2023-05-10T03:43:14;100733.22;;;13.60;100.00
10852;BME280;5479;52.046;6.314;2023-05-10T03:45:44;100743.88;;;13.60;100.00
10852;BME280;5479;52.046;6.314;2023-05-10T03:48:12;100739.28;;;13.62;100.00
10852;BME280;5479;52.046;6.314;2023-05-10T03:50:42;100751.75;;;13.61;100.00
10852;BME280;5479;52.046;6.314;2023-05-10T03:53:16;100749.19;;;13.60;100.00
10852;BME280;5479;52.046;6.314;2023-05-10T03:55:50;100750.91;;;13.61;100.00
10852;BME280;5479;52.046;6.314;2023-05-10T03:58:19;100759.63;;;13.63;100.00
10852;BME280;5479;52.046;6.314;2023-05-10T04:00:50;100758.16;;;13.59;100.00
10852;BME280;5479;52.046;6.314;2023-05-10T04:03:18;100755.38;;;13.60;100.00
10852;BME280;5479;52.046;6.314;2023-05-10T04:05:48;100756.00;;;13.64;100.00
10852;BME280;5479;52.046;6.314;2023-05-10T04:08:18;100762.78;;;13.68;100.00
10852;BME280;5479;52.046;6.314;2023-05-10T04:10:47;100752.28;;;13.66;100.00
10852;BME280;5479;52.046;6.314;2023-05-10T04:13:15;100760.13;;;13.68;100.00
10852;BME280;5479;52.046;6.314;2023-05-10T04:15:48;100754.72;;;13.57;100.00
10852;BME280;5479;52.046;6.314;2023-05-10T04:18:17;100754.44;;;13.49;100.00
10852;BME280;5479;52.046;6.314;2023-05-10T04:20:47;100751.47;;;13.53;100.00
10852;BME280;5479;52.046;6.314;2023-05-10T04:23:15;100755.19;;;13.51;100.00
10852;BME280;5479;52.046;6.314;2023-05-10T04:25:46;100762.19;;;13.52;100.00
10852;BME280;5479;52.046;6.314;2023-05-10T04:28:18;100763.06;;;13.52;100.00
10852;BME280;5479;52.046;6.314;2023-05-10T04:30:46;100762.88;;;13.43;100.00
10852;BME280;5479;52.046;6.314;2023-05-10T04:33:16;100765.59;;;13.54;100.00
10852;BME280;5479;52.046;6.314;2023-05-10T04:35:44;100773.06;;;13.49;100.00
10852;BME280;5479;52.046;6.314;2023-05-10T04:38:12;100778.59;;;13.58;100.00
10852;BME280;5479;52.046;6.314;2023-05-10T04:40:43;100777.59;;;13.59;100.00
10852;BME280;5479;52.046;6.314;2023-05-10T04:43:13;100772.06;;;13.62;100.00
10852;BME280;5479;52.046;6.314;2023-05-10T04:45:41;100782.84;;;13.61;100.00
10852;BME280;5479;52.046;6.314;2023-05-10T04:48:09;100786.56;;;13.58;100.00
10852;BME280;5479;52.046;6.314;2023-05-10T04:50:38;100788.38;;;13.58;100.00
10852;BME280;5479;52.046;6.314;2023-05-10T04:53:07;100796.06;;;13.50;100.00
10852;BME280;5479;52.046;6.314;2023-05-10T04:55:35;100801.03;;;13.54;100.00
10852;BME280;5479;52.046;6.314;2023-05-10T04:58:03;100803.69;;;13.54;100.00
10852;BME280;5479;52.046;6.314;2023-05-10T05:00:38;100810.59;;;13.57;100.00
10852;BME280;5479;52.046;6.314;2023-05-10T05:03:11;100802.66;;;13.44;100.00
10852;BME280;5479;52.046;6.314;2023-05-10T05:05:43;100805.19;;;13.46;100.00
10852;BME280;5479;52.046;6.314;2023-05-10T05:08:16;100809.00;;;13.54;100.00
10852;BME280;5479;52.046;6.314;2023-05-10T05:10:45;100797.97;;;13.48;100.00
10852;BME280;5479;52.046;6.314;2023-05-10T05:13:13;100803.28;;;13.48;100.00
10852;BME280;5479;52.046;6.314;2023-05-10T05:15:46;100804.56;;;13.55;100.00
10852;BME280;5479;52.046;6.314;2023-05-10T05:18:17;100807.44;;;13.52;100.00
10852;BME280;5479;52.046;6.314;2023-05-10T05:20:45;100806.69;;;13.50;100.00
10852;BME280;5479;52.046;6.314;2023-05-10T05:23:19;100798.06;;;13.46;100.00
10852;BME280;5479;52.046;6.314;2023-05-10T05:25:52;100803.38;;;13.59;100.00
10852;BME280;5479;52.046;6.314;2023-05-10T05:28:21;100800.25;;;13.65;100.00
10852;BME280;5479;52.046;6.314;2023-05-10T05:30:51;100803.22;;;13.73;100.00
10852;BME280;5479;52.046;6.314;2023-05-10T05:33:19;100811.97;;;13.75;100.00
10852;BME280;5479;52.046;6.314;2023-05-10T05:35:47;100806.81;;;13.84;100.00
10852;BME280;5479;52.046;6.314;2023-05-10T05:38:19;100812.56;;;13.78;100.00
10852;BME280;5479;52.046;6.314;2023-05-10T05:40:47;100807.69;;;13.85;100.00
10852;BME280;5479;52.046;6.314;2023-05-10T05:43:18;100826.97;;;13.76;100.00
10852;BME280;5479;52.046;6.314;2023-05-10T05:45:51;100824.72;;;13.70;100.00
10852;BME280;5479;52.046;6.314;2023-05-10T05:48:20;100830.31;;;13.67;100.00
10852;BME280;5479;52.046;6.314;2023-05-10T05:50:48;100823.13;;;13.80;100.00
10852;BME280;5479;52.046;6.314;2023-05-10T05:53:19;100819.84;;;13.76;100.00
10852;BME280;5479;52.046;6.314;2023-05-10T05:55:51;100827.16;;;13.85;100.00
10852;BME280;5479;52.046;6.314;2023-05-10T05:58:21;100830.25;;;13.79;100.00
10852;BME280;5479;52.046;6.314;2023-05-10T06:00:51;100831.00;;;13.81;100.00
10852;BME280;5479;52.046;6.314;2023-05-10T06:03:19;100820.41;;;13.93;100.00
10852;BME280;5479;52.046;6.314;2023-05-10T06:06:00;100822.22;;;13.92;100.00
10852;BME280;5479;52.046;6.314;2023-05-10T06:08:29;100824.66;;;13.95;100.00
10852;BME280;5479;52.046;6.314;2023-05-10T06:10:56;100826.38;;;13.96;100.00
10852;BME280;5479;52.046;6.314;2023-05-10T06:13:27;100822.13;;;13.94;100.00
10852;BME280;5479;52.046;6.314;2023-05-10T06:16:00;100834.59;;;13.93;100.00
10852;BME280;5479;52.046;6.314;2023-05-10T06:18:30;100832.31;;;14.00;100.00
10852;BME280;5479;52.046;6.314;2023-05-10T06:20:58;100839.22;;;14.02;100.00
10852;BME280;5479;52.046;6.314;2023-05-10T06:23:27;100838.06;;;14.06;100.00
10852;BME280;5479;52.046;6.314;2023-05-10T06:25:56;100831.75;;;14.07;100.00
10852;BME280;5479;52.046;6.314;2023-05-10T06:28:24;100831.66;;;14.09;100.00
10852;BME280;5479;52.046;6.314;2023-05-10T06:31:02;100845.91;;;14.08;100.00
10852;BME280;5479;52.046;6.314;2023-05-10T06:33:31;100838.41;;;14.25;100.00
10852;BME280;5479;52.046;6.314;2023-05-10T06:36:00;100847.00;;;14.41;100.00
10852;BME280;5479;52.046;6.314;2023-05-10T06:38:28;100845.56;;;14.48;100.00
10852;BME280;5479;52.046;6.314;2023-05-10T06:40:56;100851.31;;;14.55;100.00
10852;BME280;5479;52.046;6.314;2023-05-10T06:43:26;100850.78;;;14.50;100.00
10852;BME280;5479;52.046;6.314;2023-05-10T06:45:55;100852.44;;;14.40;100.00
10852;BME280;5479;52.046;6.314;2023-05-10T06:48:27;100848.91;;;14.39;100.00
10852;BME280;5479;52.046;6.314;2023-05-10T06:50:58;100853.50;;;14.37;100.00
10852;BME280;5479;52.046;6.314;2023-05-10T06:53:26;100861.56;;;14.48;100.00
10852;BME280;5479;52.046;6.314;2023-05-10T06:55:57;100864.09;;;14.50;100.00
10852;BME280;5479;52.046;6.314;2023-05-10T06:58:27;100851.63;;;14.50;100.00
10852;BME280;5479;52.046;6.314;2023-05-10T07:01:04;100860.09;;;14.44;100.00
10852;BME280;5479;52.046;6.314;2023-05-10T07:03:32;100862.06;;;14.54;100.00
10852;BME280;5479;52.046;6.314;2023-05-10T07:06:11;100862.22;;;14.39;100.00
10852;BME280;5479;52.046;6.314;2023-05-10T07:08:43;100864.69;;;14.30;100.00
10852;BME280;5479;52.046;6.314;2023-05-10T07:11:11;100872.81;;;14.28;100.00
10852;BME280;5479;52.046;6.314;2023-05-10T07:13:39;100862.59;;;14.22;100.00
10852;BME280;5479;52.046;6.314;2023-05-10T07:16:10;100877.25;;;14.04;100.00
10852;BME280;5479;52.046;6.314;2023-05-10T07:18:41;100880.38;;;13.98;100.00
10852;BME280;5479;52.046;6.314;2023-05-10T07:21:13;100874.31;;;13.96;100.00
10852;BME280;5479;52.046;6.314;2023-05-10T07:23:41;100877.25;;;14.04;100.00
10852;BME280;5479;52.046;6.314;2023-05-10T07:26:09;100882.13;;;14.10;100.00
10852;BME280;5479;52.046;6.314;2023-05-10T07:28:38;100896.38;;;14.22;100.00
10852;BME280;5479;52.046;6.314;2023-05-10T07:31:06;100894.91;;;14.18;100.00
10852;BME280;5479;52.046;6.314;2023-05-10T07:33:35;100900.03;;;14.08;100.00
10852;BME280;5479;52.046;6.314;2023-05-10T07:36:03;100900.94;;;13.96;100.00
10852;BME280;5479;52.046;6.314;2023-05-10T07:38:34;100901.75;;;13.97;100.00
10852;BME280;5479;52.046;6.314;2023-05-10T07:41:02;100903.66;;;14.07;100.00
10852;BME280;5479;52.046;6.314;2023-05-10T07:43:31;100905.09;;;14.24;100.00
10852;BME280;5479;52.046;6.314;2023-05-10T07:45:59;100908.09;;;14.19;100.00
10852;BME280;5479;52.046;6.314;2023-05-10T07:48:27;100903.81;;;14.29;100.00
10852;BME280;5479;52.046;6.314;2023-05-10T07:50:55;100908.75;;;14.23;100.00
10852;BME280;5479;52.046;6.314;2023-05-10T07:53:23;100911.69;;;14.31;100.00
10852;BME280;5479;52.046;6.314;2023-05-10T07:55:54;100912.69;;;14.54;100.00
10852;BME280;5479;52.046;6.314;2023-05-10T07:58:25;100918.50;;;14.82;100.00
10852;BME280;5479;52.046;6.314;2023-05-10T08:00:57;100926.56;;;14.93;100.00
10852;BME280;5479;52.046;6.314;2023-05-10T08:03:26;100922.50;;;15.00;100.00
10852;BME280;5479;52.046;6.314;2023-05-10T08:05:54;100919.78;;;15.24;100.00
10852;BME280;5479;52.046;6.314;2023-05-10T08:08:22;100922.81;;;15.42;100.00
10852;BME280;5479;52.046;6.314;2023-05-10T08:10:53;100927.53;;;15.38;100.00
10852;BME280;5479;52.046;6.314;2023-05-10T08:13:24;100927.22;;;15.43;100.00
10852;BME280;5479;52.046;6.314;2023-05-10T08:15:53;100928.00;;;15.56;100.00
10852;BME280;5479;52.046;6.314;2023-05-10T08:18:21;100918.75;;;15.60;100.00
10852;BME280;5479;52.046;6.314;2023-05-10T08:20:49;100925.47;;;15.88;100.00
10852;BME280;5479;52.046;6.314;2023-05-10T08:23:25;100925.84;;;15.94;100.00
10852;BME280;5479;52.046;6.314;2023-05-10T08:25:54;100914.78;;;16.10;100.00
10852;BME280;5479;52.046;6.314;2023-05-10T08:28:24;100923.47;;;16.34;100.00
10852;BME280;5479;52.046;6.314;2023-05-10T08:30:55;100916.00;;;16.71;100.00
10852;BME280;5479;52.046;6.314;2023-05-10T08:33:23;100921.59;;;17.41;100.00
10852;BME280;5479;52.046;6.314;2023-05-10T08:35:53;100921.81;;;17.79;100.00
10852;BME280;5479;52.046;6.314;2023-05-10T08:38:21;100922.44;;;17.92;100.00
10852;BME280;5479;52.046;6.314;2023-05-10T08:40:49;100922.78;;;17.07;100.00
10852;BME280;5479;52.046;6.314;2023-05-10T08:43:26;100916.41;;;17.60;100.00
10852;BME280;5479;52.046;6.314;2023-05-10T08:46:00;100922.91;;;17.67;100.00
10852;BME280;5479;52.046;6.314;2023-05-10T08:48:29;100923.28;;;17.42;100.00
10852;BME280;5479;52.046;6.314;2023-05-10T08:51:00;100933.63;;;17.67;100.00
10852;BME280;5479;52.046;6.314;2023-05-10T08:53:32;100930.03;;;17.87;100.00
10852;BME280;5479;52.046;6.314;2023-05-10T08:56:05;100935.22;;;17.79;100.00
10852;BME280;5479;52.046;6.314;2023-05-10T08:58:37;100939.94;;;17.87;100.00
10852;BME280;5479;52.046;6.314;2023-05-10T09:01:05;100944.47;;;17.96;100.00
10852;BME280;5479;52.046;6.314;2023-05-10T09:03:35;100951.56;;;18.06;100.00
10852;BME280;5479;52.046;6.314;2023-05-10T09:06:04;100951.53;;;17.97;100.00
10852;BME280;5479;52.046;6.314;2023-05-10T09:08:34;100951.00;;;17.52;100.00
10852;BME280;5479;52.046;6.314;2023-05-10T09:11:04;100956.81;;;17.05;100.00
10852;BME280;5479;52.046;6.314;2023-05-10T09:13:33;100954.72;;;16.87;100.00
10852;BME280;5479;52.046;6.314;2023-05-10T09:16:04;100959.84;;;16.79;100.00
10852;BME280;5479;52.046;6.314;2023-05-10T09:18:33;100968.16;;;16.54;100.00
10852;BME280;5479;52.046;6.314;2023-05-10T09:21:04;100973.25;;;16.35;100.00
10852;BME280;5479;52.046;6.314;2023-05-10T09:23:32;100964.19;;;16.04;100.00
10852;BME280;5479;52.046;6.314;2023-05-10T09:26:06;100976.91;;;15.90;100.00
10852;BME280;5479;52.046;6.314;2023-05-10T09:28:34;100984.78;;;15.34;100.00
10852;BME280;5479;52.046;6.314;2023-05-10T09:31:19;100990.31;;;15.20;100.00
10852;BME280;5479;52.046;6.314;2023-05-10T09:33:48;100996.13;;;15.14;100.00
10852;BME280;5479;52.046;6.314;2023-05-10T09:36:18;100996.88;;;15.16;100.00
10852;BME280;5479;52.046;6.314;2023-05-10T09:38:47;100996.59;;;15.08;100.00
10852;BME280;5479;52.046;6.314;2023-05-10T09:41:27;100994.78;;;15.08;100.00
10852;BME280;5479;52.046;6.314;2023-05-10T09:43:57;101001.69;;;15.11;100.00
10852;BME280;5479;52.046;6.314;2023-05-10T09:46:29;101006.22;;;15.22;100.00
10852;BME280;5479;52.046;6.314;2023-05-10T09:48:58;101005.44;;;15.08;100.00
10852;BME280;5479;52.046;6.314;2023-05-10T09:51:30;101005.19;;;15.11;100.00
10852;BME280;5479;52.046;6.314;2023-05-10T09:54:12;101008.19;;;15.31;100.00
10852;BME280;5479;52.046;6.314;2023-05-10T09:56:41;100998.25;;;15.79;100.00
10852;BME280;5479;52.046;6.314;2023-05-10T09:59:15;101004.13;;;16.50;100.00
10852;BME280;5479;52.046;6.314;2023-05-10T10:01:50;100999.09;;;16.79;100.00
10852;BME280;5479;52.046;6.314;2023-05-10T10:04:20;101005.06;;;16.82;100.00
10852;BME280;5479;52.046;6.314;2023-05-10T10:06:58;101012.59;;;16.77;100.00
10852;BME280;5479;52.046;6.314;2023-05-10T10:09:27;101011.78;;;16.66;100.00
10852;BME280;5479;52.046;6.314;2023-05-10T10:11:56;101017.34;;;16.52;100.00
10852;BME280;5479;52.046;6.314;2023-05-10T10:14:24;101010.66;;;16.79;100.00
10852;BME280;5479;52.046;6.314;2023-05-10T10:16:53;101020.94;;;16.95;100.00
10852;BME280;5479;52.046;6.314;2023-05-10T10:19:26;101007.22;;;17.52;100.00
10852;BME280;5479;52.046;6.314;2023-05-10T10:21:54;101009.50;;;17.36;100.00
10852;BME280;5479;52.046;6.314;2023-05-10T10:24:22;101020.78;;;17.08;100.00
10852;BME280;5479;52.046;6.314;2023-05-10T10:26:59;101010.75;;;17.21;100.00
10852;BME280;5479;52.046;6.314;2023-05-10T10:29:36;101021.59;;;16.76;100.00
10852;BME280;5479;52.046;6.314;2023-05-10T10:32:19;101019.56;;;16.69;100.00
10852;BME280;5479;52.046;6.314;2023-05-10T10:34:49;101021.53;;;16.56;100.00
10852;BME280;5479;52.046;6.314;2023-05-10T10:37:17;101018.03;;;17.50;100.00
10852;BME280;5479;52.046;6.314;2023-05-10T10:39:49;101012.47;;;18.55;100.00
10852;BME280;5479;52.046;6.314;2023-05-10T10:42:44;101012.59;;;19.42;100.00
10852;BME280;5479;52.046;6.314;2023-05-10T10:45:13;101011.59;;;19.71;100.00
10852;BME280;5479;52.046;6.314;2023-05-10T10:47:43;101008.53;;;20.03;100.00
10852;BME280;5479;52.046;6.314;2023-05-10T10:50:12;101003.91;;;20.23;100.00
10852;BME280;5479;52.046;6.314;2023-05-10T10:52:43;101001.66;;;20.18;100.00
10852;BME280;5479;52.046;6.314;2023-05-10T10:55:12;101011.38;;;19.82;100.00
10852;BME280;5479;52.046;6.314;2023-05-10T10:57:54;101008.88;;;19.04;100.00
10852;BME280;5479;52.046;6.314;2023-05-10T11:00:28;101008.91;;;19.43;100.00
10852;BME280;5479;52.046;6.314;2023-05-10T11:03:05;101002.13;;;19.58;100.00
10852;BME280;5479;52.046;6.314;2023-05-10T11:05:39;101010.88;;;19.41;100.00
10852;BME280;5479;52.046;6.314;2023-05-10T11:08:13;101014.09;;;19.06;100.00
10852;BME280;5479;52.046;6.314;2023-05-10T11:10:50;101015.75;;;20.03;100.00
10852;BME280;5479;52.046;6.314;2023-05-10T11:13:27;101011.00;;;21.58;100.00
10852;BME280;5479;52.046;6.314;2023-05-10T11:15:57;101022.56;;;21.33;95.82
10852;BME280;5479;52.046;6.314;2023-05-10T11:18:28;101017.72;;;21.37;96.17
10852;BME280;5479;52.046;6.314;2023-05-10T11:20:57;101009.69;;;21.27;96.89
10852;BME280;5479;52.046;6.314;2023-05-10T11:23:30;101014.38;;;21.60;97.42
10852;BME280;5479;52.046;6.314;2023-05-10T11:25:59;101025.22;;;21.69;92.66
10852;BME280;5479;52.046;6.314;2023-05-10T11:28:30;101023.88;;;21.29;89.79
10852;BME280;5479;52.046;6.314;2023-05-10T11:30:59;101025.69;;;21.46;95.17
10852;BME280;5479;52.046;6.314;2023-05-10T11:33:42;101026.34;;;20.51;95.77
10852;BME280;5479;52.046;6.314;2023-05-10T11:36:15;101028.09;;;19.67;100.00
10852;BME280;5479;52.046;6.314;2023-05-10T11:38:46;101035.03;;;19.79;100.00
10852;BME280;5479;52.046;6.314;2023-05-10T11:41:16;101032.31;;;18.83;100.00
10852;BME280;5479;52.046;6.314;2023-05-10T11:43:48;101031.41;;;19.42;100.00
10852;BME280;5479;52.046;6.314;2023-05-10T11:46:19;101030.25;;;20.19;100.00
10852;BME280;5479;52.046;6.314;2023-05-10T11:48:52;101037.66;;;20.08;100.00
10852;BME280;5479;52.046;6.314;2023-05-10T11:51:21;101033.91;;;20.65;99.31
10852;BME280;5479;52.046;6.314;2023-05-10T11:53:55;101045.44;;;20.01;100.00
10852;BME280;5479;52.046;6.314;2023-05-10T11:56:26;101049.03;;;19.73;100.00
10852;BME280;5479;52.046;6.314;2023-05-10T11:58:58;101046.91;;;19.28;100.00
10852;BME280;5479;52.046;6.314;2023-05-10T12:01:30;101044.78;;;19.80;100.00
10852;BME280;5479;52.046;6.314;2023-05-10T12:04:01;101046.22;;;20.67;99.85
10852;BME280;5479;52.046;6.314;2023-05-10T12:06:31;101054.63;;;19.99;100.00
10852;BME280;5479;52.046;6.314;2023-05-10T12:09:05;101057.44;;;20.16;99.31
10852;BME280;5479;52.046;6.314;2023-05-10T12:11:37;101053.69;;;19.80;100.00
10852;BME280;5479;52.046;6.314;2023-05-10T12:14:08;101062.31;;;19.84;100.00
10852;BME280;5479;52.046;6.314;2023-05-10T12:16:36;101052.41;;;19.17;100.00
10852;BME280;5479;52.046;6.314;2023-05-10T12:19:06;101056.31;;;18.94;100.00
10852;BME280;5479;52.046;6.314;2023-05-10T12:21:37;101060.31;;;19.19;100.00
10852;BME280;5479;52.046;6.314;2023-05-10T12:24:08;101066.97;;;18.65;100.00
10852;BME280;5479;52.046;6.314;2023-05-10T12:26:36;101070.69;;;18.74;100.00
10852;BME280;5479;52.046;6.314;2023-05-10T12:29:15;101062.53;;;18.85;100.00
10852;BME280;5479;52.046;6.314;2023-05-10T12:31:53;101065.31;;;18.74;100.00
10852;BME280;5479;52.046;6.314;2023-05-10T12:34:33;101064.56;;;18.62;100.00
10852;BME280;5479;52.046;6.314;2023-05-10T12:37:02;101065.72;;;18.39;100.00
10852;BME280;5479;52.046;6.314;2023-05-10T12:39:40;101069.75;;;18.54;100.00
10852;BME280;5479;52.046;6.314;2023-05-10T12:42:12;101067.09;;;19.13;100.00
10852;BME280;5479;52.046;6.314;2023-05-10T12:44:41;101065.53;;;19.01;100.00
10852;BME280;5479;52.046;6.314;2023-05-10T12:47:12;101066.66;;;19.08;100.00
10852;BME280;5479;52.046;6.314;2023-05-10T12:49:43;101074.56;;;18.51;100.00
10852;BME280;5479;52.046;6.314;2023-05-10T12:52:11;101074.06;;;18.76;100.00
10852;BME280;5479;52.046;6.314;2023-05-10T12:54:42;101078.63;;;18.85;100.00
10852;BME280;5479;52.046;6.314;2023-05-10T12:57:10;101082.94;;;19.36;100.00
10852;BME280;5479;52.046;6.314;2023-05-10T12:59:39;101074.75;;;19.27;99.38
10852;BME280;5479;52.046;6.314;2023-05-10T13:02:07;101075.91;;;19.73;98.53
10852;BME280;5479;52.046;6.314;2023-05-10T13:04:36;101069.03;;;20.26;95.22
10852;BME280;5479;52.046;6.314;2023-05-10T13:07:15;101074.63;;;19.86;92.37
10852;BME280;5479;52.046;6.314;2023-05-10T13:09:43;101075.53;;;20.33;92.85
10852;BME280;5479;52.046;6.314;2023-05-10T13:12:22;101079.44;;;19.54;92.43
10852;BME280;5479;52.046;6.314;2023-05-10T13:14:51;101085.63;;;19.26;95.86
10852;BME280;5479;52.046;6.314;2023-05-10T13:17:19;101078.19;;;19.68;96.80